Time;durP1;ratioP1;P1;durP2;ratioP2;P2;SDS_P1;SDS_P2;PMS_P1;PMS_P2;Temp;Humidity;BMP_temperature;BMP_pressure;BME280_temperature;BME280_humidity;BME280_pressure;Samples;Min_cycle;Max_cycle;Signal;HPM_P1;HPM_P2
2021/05/02 00:00:22;;;;;;;30.23;18.95;;;;;;;7.24;70.77;101538.13;5043508;28;20143;-73
2021/05/02 00:02:48;;;;;;;29.20;17.75;;;;;;;7.20;70.15;101530.63;5057615;28;20539;-72
2021/05/02 00:05:17;;;;;;;26.92;17.38;;;;;;;7.25;70.31;101539.81;5046879;28;20057;-73
2021/05/02 00:07:44;;;;;;;28.98;17.20;;;;;;;7.15;70.91;101533.53;5043374;28;20049;-74
2021/05/02 00:10:11;;;;;;;31.50;17.45;;;;;;;7.23;70.71;101546.06;5042295;28;20484;-73
2021/05/02 00:12:38;;;;;;;27.63;17.60;;;;;;;7.15;71.16;101535.31;5025054;28;20499;-72
2021/05/02 00:15:07;;;;;;;27.63;16.83;;;;;;;7.13;70.97;101531.06;5037727;28;20057;-72
2021/05/02 00:17:37;;;;;;;28.02;17.17;;;;;;;7.17;70.76;101539.47;5050498;28;20136;-72
2021/05/02 00:20:07;;;;;;;29.80;18.15;;;;;;;7.16;70.95;101539.59;5058244;28;20136;-71
2021/05/02 00:22:34;;;;;;;29.92;18.27;;;;;;;7.14;70.68;101534.50;5052544;28;20141;-71
2021/05/02 00:25:03;;;;;;;29.27;16.88;;;;;;;7.11;70.79;101542.50;5040219;28;20056;-71
2021/05/02 00:27:29;;;;;;;32.63;17.70;;;;;;;7.04;71.01;101536.91;5055717;28;20410;-71
2021/05/02 00:29:56;;;;;;;26.48;17.13;;;;;;;7.08;71.19;101540.13;5045016;28;20045;-71
2021/05/02 00:32:24;;;;;;;30.15;18.13;;;;;;;7.06;70.51;101536.81;5054514;28;20133;-71
2021/05/02 00:34:52;;;;;;;35.17;18.23;;;;;;;7.00;70.99;101537.19;5039510;28;20052;-72
2021/05/02 00:37:19;;;;;;;32.22;17.65;;;;;;;6.98;70.46;101534.72;5052040;28;20048;-72
2021/05/02 00:39:46;;;;;;;27.55;17.23;;;;;;;6.99;71.49;101538.16;5050063;28;20632;-73
2021/05/02 00:42:20;;;;;;;31.05;16.30;;;;;;;6.99;71.26;101535.53;5030314;28;20052;-72
2021/05/02 00:44:51;;;;;;;24.95;15.93;;;;;;;6.98;70.14;101534.72;5049162;28;20546;-72
2021/05/02 00:47:25;;;;;;;27.13;16.52;;;;;;;6.94;71.13;101538.47;5042410;28;20290;-72
2021/05/02 00:49:58;;;;;;;26.90;16.50;;;;;;;6.91;70.68;101525.63;5043323;28;20052;-72
2021/05/02 00:52:34;;;;;;;29.83;16.77;;;;;;;6.87;71.27;101530.22;5042346;28;20348;-73
2021/05/02 00:55:07;;;;;;;27.80;17.20;;;;;;;6.88;72.08;101531.06;5060284;28;20119;-71
2021/05/02 00:57:55;;;;;;;29.10;17.20;;;;;;;6.90;71.24;101537.84;5055561;28;20159;-71
2021/05/02 01:00:23;;;;;;;29.50;18.05;;;;;;;6.88;71.91;101531.06;5056233;28;20056;-72
2021/05/02 01:02:56;;;;;;;32.47;16.80;;;;;;;6.89;72.55;101533.56;5047609;28;20899;-72
2021/05/02 01:05:23;;;;;;;26.25;16.33;;;;;;;6.88;71.99;101533.66;5047198;28;20428;-73
2021/05/02 01:07:54;;;;;;;25.95;14.95;;;;;;;6.85;71.75;101532.09;5050802;28;20060;-72
2021/05/02 01:10:20;;;;;;;28.35;15.85;;;;;;;6.85;72.17;101533.88;5047204;28;20160;-72
2021/05/02 01:12:49;;;;;;;25.70;15.63;;;;;;;6.89;72.75;101532.72;5067368;28;20150;-73
2021/05/02 01:15:22;;;;;;;36.85;14.50;;;;;;;6.91;71.95;101541.28;5050251;28;20150;-72
2021/05/02 01:18:04;;;;;;;29.02;17.05;;;;;;;6.94;71.83;101528.03;5052004;28;20404;-71
2021/05/02 01:20:32;;;;;;;28.05;14.15;;;;;;;6.93;72.62;101528.97;5059475;28;20084;-71
2021/05/02 01:23:02;;;;;;;27.30;16.10;;;;;;;6.98;72.78;101531.25;5043749;28;20169;-72
2021/05/02 01:25:29;;;;;;;24.10;13.38;;;;;;;6.99;72.23;101531.16;5036985;28;20147;-72
2021/05/02 01:27:57;;;;;;;21.80;13.88;;;;;;;7.02;71.93;101532.75;5033850;28;20098;-72
2021/05/02 01:30:25;;;;;;;23.70;14.10;;;;;;;6.99;72.48;101532.94;5040320;28;20187;-71
2021/05/02 01:32:52;;;;;;;24.92;12.70;;;;;;;7.02;71.91;101541.38;5046993;28;20068;-72
2021/05/02 01:35:19;;;;;;;22.33;12.38;;;;;;;7.00;72.01;101540.66;5034104;28;20068;-72
2021/05/02 01:37:47;;;;;;;22.65;10.98;;;;;;;7.06;71.48;101540.25;5056216;28;20048;-71
2021/05/02 01:40:14;;;;;;;23.80;11.68;;;;;;;7.09;71.44;101540.00;5044040;28;22014;-71
2021/05/02 01:42:40;;;;;;;21.63;11.45;;;;;;;7.10;71.26;101539.06;5055516;28;20084;-72
2021/05/02 01:45:08;;;;;;;15.65;10.13;;;;;;;6.98;71.32;101536.47;5043504;28;20139;-71
2021/05/02 01:47:38;;;;;;;20.48;10.45;;;;;;;7.00;71.04;101537.19;5052023;28;20076;-71
2021/05/02 01:50:07;;;;;;;17.67;10.57;;;;;;;7.02;70.49;101535.34;5054924;28;20048;-72
2021/05/02 01:52:52;;;;;;;17.77;9.68;;;;;;;7.01;71.02;101531.88;5054692;28;20056;-71
2021/05/02 01:55:19;;;;;;;16.33;9.18;;;;;;;7.02;70.75;101537.94;5052550;28;20080;-72
2021/05/02 01:57:47;;;;;;;19.55;10.27;;;;;;;7.05;70.89;101537.72;5044263;28;20142;-71
2021/05/02 02:00:40;;;;;;;16.10;9.00;;;;;;;7.03;70.17;101540.44;5046608;28;20554;-71
2021/05/02 02:03:08;;;;;;;13.93;7.70;;;;;;;7.04;70.27;101541.28;5042371;28;20056;-72
2021/05/02 02:05:36;;;;;;;15.10;9.00;;;;;;;7.05;69.88;101543.78;5054233;28;20052;-71
2021/05/02 02:08:05;;;;;;;13.48;6.85;;;;;;;7.01;69.47;101537.09;5051714;28;20064;-72
2021/05/02 02:10:32;;;;;;;15.77;7.65;;;;;;;6.98;68.08;101544.28;5060256;28;20121;-73
2021/05/02 02:13:09;;;;;;;14.40;6.97;;;;;;;6.95;68.73;101547.13;5039535;28;20084;-73
2021/05/02 02:15:35;;;;;;;16.15;6.93;;;;;;;6.90;68.42;101547.47;5047988;28;20410;-72
2021/05/02 02:18:02;;;;;;;17.83;7.20;;;;;;;6.85;68.41;101549.53;5052979;28;20101;-73
2021/05/02 02:20:29;;;;;;;12.38;6.55;;;;;;;6.86;69.08;101549.44;5048273;28;20459;-72
2021/05/02 02:22:59;;;;;;;17.27;7.93;;;;;;;6.84;69.21;101550.44;5046003;28;20056;-72
2021/05/02 02:25:31;;;;;;;12.95;6.97;;;;;;;6.81;68.94;101554.13;5042537;28;20082;-72
2021/05/02 02:28:01;;;;;;;14.75;7.07;;;;;;;6.72;68.90;101552.13;5054681;28;20044;-72
2021/05/02 02:30:27;;;;;;;12.20;7.13;;;;;;;6.64;69.06;101554.41;5059011;28;20132;-72
2021/05/02 02:32:59;;;;;;;16.42;7.53;;;;;;;6.63;68.33;101558.81;5044529;28;20135;-72
2021/05/02 02:35:26;;;;;;;11.05;6.90;;;;;;;6.53;69.25;101561.19;5056988;28;20496;-73
2021/05/02 02:37:56;;;;;;;18.58;7.68;;;;;;;6.51;69.40;101567.44;5046507;28;20141;-72
2021/05/02 02:40:23;;;;;;;15.23;7.93;;;;;;;6.44;70.08;101568.78;5047835;28;20496;-72
2021/05/02 02:42:51;;;;;;;14.57;7.60;;;;;;;6.39;70.06;101573.44;5024202;28;20079;-73
2021/05/02 02:45:18;;;;;;;15.05;7.90;;;;;;;6.36;70.14;101573.66;5041333;28;20384;-72
2021/05/02 02:47:53;;;;;;;16.67;7.85;;;;;;;6.31;70.02;101569.59;5040076;28;20051;-71
2021/05/02 02:50:20;;;;;;;12.77;8.32;;;;;;;6.31;70.43;101574.81;5043642;28;20045;-72
2021/05/02 02:52:48;;;;;;;16.60;8.20;;;;;;;6.34;71.34;101576.38;5038179;28;20063;-72
2021/05/02 02:55:17;;;;;;;16.30;8.95;;;;;;;6.32;71.59;101570.41;5043235;28;20053;-72
2021/05/02 02:57:45;;;;;;;;;;;;;;;6.36;70.87;101573.66;5057246;28;20883;-72
2021/05/02 03:00:12;;;;;;;12.88;8.15;;;;;;;6.33;71.42;101572.06;5034475;28;20471;-73
2021/05/02 03:02:43;;;;;;;13.50;8.10;;;;;;;6.35;71.27;101572.84;5051500;28;20048;-72
2021/05/02 03:05:13;;;;;;;23.35;7.90;;;;;;;6.38;71.23;101574.41;5041042;28;20047;-72
2021/05/02 03:07:40;;;;;;;19.08;8.55;;;;;;;6.44;71.45;101576.59;5046898;28;20500;-72
2021/05/02 03:10:08;;;;;;;15.93;7.28;;;;;;;6.44;71.50;101580.03;5057224;28;20102;-73
2021/05/02 03:12:38;;;;;;;23.00;9.38;;;;;;;6.47;71.32;101577.22;5043049;28;20076;-72
2021/05/02 03:15:06;;;;;;;13.93;7.75;;;;;;;6.44;71.27;101574.00;5050139;28;20048;-72
2021/05/02 03:17:34;;;;;;;16.75;8.38;;;;;;;6.43;71.09;101586.19;5030042;28;20147;-73
2021/05/02 03:20:06;;;;;;;14.82;8.63;;;;;;;6.39;71.67;101592.53;5046632;28;20110;-72
2021/05/02 03:22:48;;;;;;;13.73;7.20;;;;;;;6.38;70.96;101588.25;5045149;28;20180;-72
2021/05/02 03:25:21;;;;;;;18.95;6.65;;;;;;;6.29;71.72;101589.69;5051893;28;20151;-72
2021/05/02 03:27:53;;;;;;;13.43;7.18;;;;;;;6.24;71.78;101588.31;5053234;28;20056;-72
2021/05/02 03:30:22;;;;;;;13.07;6.90;;;;;;;6.30;71.78;101585.31;5047731;28;20554;-71
2021/05/02 03:32:49;;;;;;;12.75;6.75;;;;;;;6.25;71.88;101589.97;5043297;28;20795;-71
2021/05/02 03:35:18;;;;;;;12.05;6.22;;;;;;;6.22;71.81;101591.03;5044515;28;20080;-72
2021/05/02 03:37:53;;;;;;;15.00;6.03;;;;;;;6.29;71.47;101600.13;5057225;28;20064;-71
2021/05/02 03:40:19;;;;;;;15.23;6.28;;;;;;;6.25;71.52;101597.78;5048476;28;20131;-71
2021/05/02 03:42:45;;;;;;;10.23;6.00;;;;;;;6.27;71.53;101594.19;5050552;28;20096;-71
2021/05/02 03:45:11;;;;;;;12.75;6.47;;;;;;;6.32;71.24;101604.28;5050236;28;20098;-72
2021/05/02 03:47:37;;;;;;;11.45;5.43;;;;;;;6.30;71.62;101611.38;5037572;28;20076;-72
2021/05/02 03:50:04;;;;;;;10.15;5.43;;;;;;;6.31;71.69;101613.88;5054465;28;20457;-70
2021/05/02 03:52:30;;;;;;;15.48;5.97;;;;;;;6.31;71.12;101618.25;5037834;28;21151;-72
2021/05/02 03:54:56;;;;;;;16.45;5.88;;;;;;;6.25;70.67;101616.03;5040508;28;20135;-72
2021/05/02 03:57:23;;;;;;;12.40;6.50;;;;;;;6.22;71.52;101609.25;5050357;28;20057;-71
2021/05/02 03:59:49;;;;;;;10.25;5.53;;;;;;;6.21;71.08;101611.97;5052644;28;20163;-72
2021/05/02 04:02:15;;;;;;;17.85;5.85;;;;;;;6.16;71.56;101614.88;5044543;28;20407;-72
2021/05/02 04:04:42;;;;;;;13.30;6.07;;;;;;;6.10;71.86;101615.25;5048684;28;20450;-71
2021/05/02 04:07:10;;;;;;;14.25;5.25;;;;;;;6.12;70.75;101619.44;5048925;28;20088;-71
2021/05/02 04:09:42;;;;;;;13.93;5.40;;;;;;;6.07;71.76;101625.88;5044177;28;20152;-72
2021/05/02 04:12:09;;;;;;;12.48;5.72;;;;;;;6.09;71.48;101624.00;5048497;28;20072;-72
2021/05/02 04:14:36;;;;;;;11.48;5.35;;;;;;;6.00;71.30;101635.00;5043183;28;20674;-72
2021/05/02 04:17:06;;;;;;;11.77;5.70;;;;;;;6.02;71.58;101635.72;5053558;28;20092;-72
2021/05/02 04:19:40;;;;;;;13.77;5.45;;;;;;;5.97;71.92;101628.22;5052070;28;20049;-73
2021/05/02 04:22:07;;;;;;;15.27;5.60;;;;;;;5.94;71.72;101638.81;5029910;28;20131;-71
2021/05/02 04:24:33;;;;;;;15.27;6.18;;;;;;;5.93;71.65;101642.34;5049549;28;20080;-71
2021/05/02 04:27:01;;;;;;;15.63;6.30;;;;;;;5.88;71.82;101646.97;5051043;28;20552;-73
2021/05/02 04:29:30;;;;;;;16.83;6.43;;;;;;;5.87;71.17;101653.13;5038648;28;20137;-73
2021/05/02 04:31:56;;;;;;;14.73;5.45;;;;;;;5.80;72.23;101647.50;5032785;28;20072;-71
2021/05/02 04:34:23;;;;;;;13.32;5.40;;;;;;;5.69;71.76;101649.91;5060252;28;20048;-71
2021/05/02 04:36:50;;;;;;;13.02;6.05;;;;;;;5.74;72.03;101661.72;5059936;28;20110;-72
2021/05/02 04:39:18;;;;;;;14.10;6.28;;;;;;;5.75;72.30;101665.16;5047982;28;20146;-72
2021/05/02 04:41:45;;;;;;;13.05;5.68;;;;;;;5.74;72.35;101664.31;5052176;28;20541;-71
2021/05/02 04:44:11;;;;;;;14.07;6.28;;;;;;;5.82;71.96;101668.19;5039708;28;20076;-72
2021/05/02 04:46:38;;;;;;;14.13;5.43;;;;;;;5.83;71.65;101669.88;5041966;28;20109;-71
2021/05/02 04:49:06;;;;;;;16.73;5.82;;;;;;;5.79;71.81;101673.59;5043116;28;20458;-72
2021/05/02 04:51:32;;;;;;;16.75;6.88;;;;;;;5.79;71.73;101677.03;5056234;28;20804;-72
2021/05/02 04:53:58;;;;;;;17.00;6.50;;;;;;;5.77;71.51;101678.06;5057614;28;20055;-72
2021/05/02 04:56:24;;;;;;;11.60;5.18;;;;;;;5.73;71.89;101680.84;5022842;28;20415;-71
2021/05/02 04:58:50;;;;;;;10.32;5.18;;;;;;;5.73;71.65;101682.63;5050428;28;20048;-73
2021/05/02 05:01:16;;;;;;;13.07;5.85;;;;;;;5.76;71.85;101685.03;5041814;28;20544;-72
2021/05/02 05:03:44;;;;;;;11.65;5.38;;;;;;;5.68;71.47;101682.06;5051415;28;20676;-72
2021/05/02 05:06:11;;;;;;;14.70;5.28;;;;;;;5.68;71.74;101687.25;5047296;28;20092;-72
2021/05/02 05:08:38;;;;;;;14.63;5.80;;;;;;;5.66;71.94;101681.31;5041456;28;20141;-72
2021/05/02 05:11:04;;;;;;;13.10;5.40;;;;;;;5.62;71.77;101690.25;5034248;28;20476;-72
2021/05/02 05:13:30;;;;;;;12.77;6.03;;;;;;;5.65;71.92;101690.06;5047036;28;20048;-73
2021/05/02 05:15:58;;;;;;;15.80;6.07;;;;;;;5.63;72.39;101697.97;5061768;28;20132;-72
2021/05/02 05:18:24;;;;;;;12.02;5.35;;;;;;;5.70;72.17;101694.06;5052567;28;20052;-72
2021/05/02 05:20:52;;;;;;;15.18;5.72;;;;;;;5.70;71.85;101695.81;5050146;28;20170;-71
2021/05/02 05:23:18;;;;;;;14.23;6.05;;;;;;;5.72;71.94;101702.63;5051820;28;20087;-71
2021/05/02 05:25:45;;;;;;;14.10;5.70;;;;;;;5.67;71.57;101699.44;5044544;28;20088;-72
2021/05/02 05:28:11;;;;;;;16.90;6.00;;;;;;;5.68;71.88;101710.69;5056219;28;20131;-72
2021/05/02 05:30:37;;;;;;;13.95;5.82;;;;;;;5.72;72.11;101714.78;5035175;28;20339;-71
2021/05/02 05:33:04;;;;;;;14.98;5.68;;;;;;;5.75;72.22;101722.41;5057073;28;20113;-71
2021/05/02 05:35:31;;;;;;;10.43;5.45;;;;;;;5.78;72.22;101721.38;5046201;28;20601;-72
2021/05/02 05:37:57;;;;;;;9.82;5.50;;;;;;;5.83;71.85;101730.59;5036534;28;20068;-71
2021/05/02 05:40:24;;;;;;;13.75;5.72;;;;;;;5.81;71.50;101732.47;5045486;28;20146;-70
2021/05/02 05:42:50;;;;;;;11.10;4.95;;;;;;;5.82;71.64;101730.69;5049461;28;20084;-71
2021/05/02 05:45:19;;;;;;;10.95;4.93;;;;;;;5.89;71.53;101740.63;5053225;28;20114;-72
2021/05/02 05:47:53;;;;;;;11.50;5.60;;;;;;;5.89;71.98;101721.56;5046955;28;20355;-72
2021/05/02 05:50:20;;;;;;;22.52;5.70;;;;;;;6.00;71.60;101733.97;5046696;28;20088;-70
2021/05/02 05:52:48;;;;;;;13.57;5.50;;;;;;;5.99;71.52;101738.34;5031328;28;20083;-71
2021/05/02 05:55:15;;;;;;;19.88;5.97;;;;;;;6.03;71.73;101745.03;5051955;28;20052;-72
2021/05/02 05:57:45;;;;;;;20.83;7.47;;;;;;;6.05;71.59;101743.16;5058484;28;20579;-71
2021/05/02 06:00:12;;;;;;;14.35;5.65;;;;;;;6.09;71.94;101744.66;5050725;28;20120;-71
2021/05/02 06:02:38;;;;;;;9.18;5.20;;;;;;;6.14;72.18;101745.22;5053669;28;20053;-71
2021/05/02 06:05:05;;;;;;;14.40;6.05;;;;;;;6.18;71.94;101739.81;5046892;28;20131;-72
2021/05/02 06:07:31;;;;;;;12.57;5.10;;;;;;;6.22;71.39;101744.75;5045996;28;20106;-72
2021/05/02 06:09:57;;;;;;;16.20;5.05;;;;;;;6.27;71.76;101747.91;5030471;28;20133;-71
2021/05/02 06:12:23;;;;;;;8.98;4.90;;;;;;;6.37;71.16;101752.53;5050453;28;20075;-71
2021/05/02 06:14:49;;;;;;;14.73;4.82;;;;;;;6.38;70.94;101746.38;5057778;28;20134;-72
2021/05/02 06:17:16;;;;;;;11.40;4.57;;;;;;;6.46;70.70;101747.56;5030744;28;20807;-72
2021/05/02 06:19:43;;;;;;;10.48;4.30;;;;;;;6.47;70.88;101749.25;5036786;28;20560;-72
2021/05/02 06:22:09;;;;;;;7.88;3.70;;;;;;;6.50;70.00;101748.22;5019112;28;20434;-71
2021/05/02 06:24:35;;;;;;;10.93;3.95;;;;;;;6.49;69.93;101747.38;5055446;28;20553;-72
2021/05/02 06:27:02;;;;;;;7.07;4.00;;;;;;;6.60;70.10;101751.06;5054188;28;20083;-72
2021/05/02 06:29:28;;;;;;;7.60;3.60;;;;;;;6.62;69.90;101742.22;5055736;28;20044;-72
2021/05/02 06:31:54;;;;;;;7.45;3.47;;;;;;;6.65;69.33;101743.81;5049235;28;20535;-71
2021/05/02 06:34:20;;;;;;;6.20;3.55;;;;;;;6.72;69.28;101740.72;5051005;28;20056;-71
2021/05/02 06:36:46;;;;;;;9.43;3.72;;;;;;;6.80;69.32;101750.66;5048845;28;20048;-71
2021/05/02 06:39:13;;;;;;;8.13;3.10;;;;;;;6.84;68.59;101748.66;5042695;28;20143;-72
2021/05/02 06:41:44;;;;;;;7.50;3.00;;;;;;;6.83;67.40;101742.59;5058820;28;20077;-72
2021/05/02 06:44:11;;;;;;;11.10;3.95;;;;;;;6.93;68.10;101753.28;5021568;28;20080;-73
2021/05/02 06:46:39;;;;;;;11.30;2.97;;;;;;;6.91;66.96;101747.34;5045655;28;20508;-72
2021/05/02 06:49:07;;;;;;;13.77;2.95;;;;;;;6.99;66.82;101750.28;5057168;28;20075;-72
2021/05/02 06:51:34;;;;;;;10.93;3.03;;;;;;;6.97;66.43;101749.53;5049273;28;20140;-72
2021/05/02 06:54:02;;;;;;;7.45;2.80;;;;;;;7.04;66.09;101758.66;5053534;28;20055;-71
2021/05/02 06:56:28;;;;;;;9.23;3.08;;;;;;;7.09;66.45;101751.34;5047293;28;20133;-71
2021/05/02 06:58:55;;;;;;;7.18;2.65;;;;;;;7.11;65.02;101759.94;5047116;28;20518;-72
2021/05/02 07:01:22;;;;;;;7.57;2.70;;;;;;;7.11;65.03;101753.84;5032835;28;20162;-72
2021/05/02 07:03:49;;;;;;;7.47;3.17;;;;;;;7.18;65.76;101759.53;5040124;28;20309;-72
2021/05/02 07:06:30;;;;;;;10.00;2.83;;;;;;;7.23;65.02;101757.41;5056787;28;20586;-72
2021/05/02 07:08:56;;;;;;;10.40;3.20;;;;;;;7.25;64.73;101769.44;5029465;28;20052;-71
2021/05/02 07:11:22;;;;;;;6.85;3.35;;;;;;;7.31;65.74;101763.81;5056574;28;20458;-72
2021/05/02 07:13:49;;;;;;;6.53;2.50;;;;;;;7.39;65.67;101768.53;5032196;28;20056;-71
2021/05/02 07:16:17;;;;;;;7.35;2.80;;;;;;;7.43;64.92;101770.00;5055456;28;20187;-70
2021/05/02 07:18:44;;;;;;;13.88;3.45;;;;;;;7.56;65.15;101779.59;5053855;28;20708;-70
2021/05/02 07:21:10;;;;;;;10.50;2.88;;;;;;;7.61;63.90;101769.69;5041396;28;20045;-71
2021/05/02 07:23:40;;;;;;;11.77;3.65;;;;;;;7.63;63.24;101776.47;5052813;28;20048;-71
2021/05/02 07:26:06;;;;;;;11.55;2.90;;;;;;;7.68;63.23;101779.63;5030304;28;20201;-72
2021/05/02 07:28:32;;;;;;;10.82;2.65;;;;;;;7.71;61.71;101795.06;5054769;28;20472;-71
2021/05/02 07:30:59;;;;;;;8.38;2.53;;;;;;;7.76;62.21;101786.09;5044425;28;20056;-72
2021/05/02 07:33:27;;;;;;;6.22;2.35;;;;;;;7.95;62.10;101783.06;5051384;28;20061;-72
2021/05/02 07:35:56;;;;;;;6.75;3.10;;;;;;;8.03;60.64;101789.41;5050044;28;20110;-71
2021/05/02 07:38:23;;;;;;;14.65;3.58;;;;;;;8.07;60.02;101792.66;5050468;28;20094;-71
2021/05/02 07:40:50;;;;;;;8.23;2.17;;;;;;;8.10;60.27;101795.06;5041308;28;20045;-71
2021/05/02 07:43:17;;;;;;;6.80;2.30;;;;;;;8.21;59.94;101789.94;5046102;28;20063;-71
2021/05/02 07:45:43;;;;;;;6.55;2.33;;;;;;;8.31;60.40;101792.72;5035055;28;20481;-72
2021/05/02 07:48:09;;;;;;;8.77;2.40;;;;;;;8.44;60.12;101792.72;5047919;28;20048;-71
2021/05/02 07:50:37;;;;;;;4.47;2.30;;;;;;;8.45;59.14;101789.19;5049786;28;20048;-71
2021/05/02 07:53:04;;;;;;;4.10;2.10;;;;;;;8.57;59.33;101790.09;5056797;28;20137;-73
2021/05/02 07:55:31;;;;;;;3.70;1.73;;;;;;;8.59;57.64;101798.66;5031260;28;20056;-72
2021/05/02 07:57:58;;;;;;;3.85;1.73;;;;;;;8.56;55.92;101791.03;5036948;28;20470;-72
2021/05/02 08:00:24;;;;;;;5.20;1.63;;;;;;;8.57;54.99;101805.78;5044945;28;20052;-72
2021/05/02 08:02:50;;;;;;;3.85;1.80;;;;;;;8.61;54.59;101794.16;5056677;28;20429;-73
2021/05/02 08:05:17;;;;;;;6.80;2.83;;;;;;;8.76;56.23;101794.81;5040923;28;20052;-72
2021/05/02 08:07:44;;;;;;;6.07;1.85;;;;;;;8.89;55.51;101799.06;5053560;28;20095;-72
2021/05/02 08:10:10;;;;;;;4.22;1.60;;;;;;;8.92;53.40;101803.25;5033715;28;20465;-72
2021/05/02 08:12:37;;;;;;;4.63;1.55;;;;;;;8.96;53.49;101790.75;5046177;28;20118;-72
2021/05/02 08:15:05;;;;;;;2.90;1.30;;;;;;;9.00;52.06;101806.13;5049367;28;20084;-71
2021/05/02 08:17:31;;;;;;;4.75;1.70;;;;;;;9.04;51.63;101799.72;5050737;28;20130;-72
2021/05/02 08:19:57;;;;;;;3.22;1.48;;;;;;;9.30;52.71;101810.06;5051604;28;20492;-72
2021/05/02 08:22:24;;;;;;;5.97;1.95;;;;;;;9.71;52.24;101798.25;5026328;28;20088;-72
2021/05/02 08:24:50;;;;;;;3.67;1.85;;;;;;;9.89;52.41;101809.94;5027978;28;20056;-71
2021/05/02 08:27:16;;;;;;;5.28;1.98;;;;;;;10.02;51.63;101816.88;5056787;28;20453;-71
2021/05/02 08:29:42;;;;;;;4.30;1.90;;;;;;;10.54;52.42;101809.38;5047985;28;20053;-72
2021/05/02 08:32:08;;;;;;;5.55;1.95;;;;;;;10.94;51.33;101812.25;5055701;28;20432;-72
2021/05/02 08:34:35;;;;;;;5.75;1.83;;;;;;;11.22;48.26;101808.19;5047341;28;20064;-71
2021/05/02 08:37:01;;;;;;;5.82;1.80;;;;;;;11.30;47.72;101804.09;5037240;28;20076;-71
2021/05/02 08:39:27;;;;;;;2.78;1.65;;;;;;;11.17;48.63;101813.00;5047264;28;20123;-70
2021/05/02 08:41:53;;;;;;;3.47;1.83;;;;;;;11.55;48.82;101810.78;5050270;28;20109;-70
2021/05/02 08:44:24;;;;;;;5.32;1.77;;;;;;;11.76;46.77;101806.34;5056390;28;20163;-70
2021/05/02 08:46:51;;;;;;;3.58;1.90;;;;;;;12.17;46.88;101802.00;5040320;28;20427;-70
2021/05/02 08:49:20;;;;;;;7.13;1.38;;;;;;;12.52;46.04;101813.03;5053607;28;20076;-70
2021/05/02 08:51:47;;;;;;;7.45;1.60;;;;;;;12.65;43.41;101798.66;5034741;28;20052;-70
2021/05/02 08:54:14;;;;;;;3.90;1.50;;;;;;;12.83;43.53;101803.25;5055876;28;20488;-71
2021/05/02 08:56:40;;;;;;;5.47;1.90;;;;;;;12.58;43.06;101807.22;5032259;28;20145;-70
2021/05/02 08:59:08;;;;;;;4.72;1.70;;;;;;;12.83;42.74;101806.72;5048018;28;20118;-70
2021/05/02 09:01:35;;;;;;;3.70;1.70;;;;;;;12.66;42.27;101807.38;5056961;28;20048;-70
2021/05/02 09:04:07;;;;;;;4.07;1.50;;;;;;;12.61;41.61;101799.06;5037631;28;20048;-70
2021/05/02 09:06:35;;;;;;;4.95;2.00;;;;;;;12.81;42.69;101808.66;5050209;28;20138;-70
2021/05/02 09:09:06;;;;;;;3.28;1.50;;;;;;;12.80;43.22;101806.16;5049035;28;20498;-70
2021/05/02 09:11:41;;;;;;;3.88;1.40;;;;;;;12.95;42.36;101807.41;5042113;28;20487;-70
2021/05/02 09:14:23;;;;;;;2.45;1.40;;;;;;;12.66;43.47;101810.88;5054438;28;20415;-70
2021/05/02 09:16:55;;;;;;;3.65;1.52;;;;;;;12.30;42.21;101808.81;5053207;28;20118;-70
2021/05/02 09:19:23;;;;;;;6.13;1.58;;;;;;;12.45;42.57;101810.13;5028060;28;20049;-71
2021/05/02 09:21:50;;;;;;;3.33;1.35;;;;;;;12.84;43.42;101816.28;5050432;28;20412;-70
2021/05/02 09:24:23;;;;;;;3.63;1.55;;;;;;;13.19;41.70;101819.34;5050713;28;20064;-70
2021/05/02 09:27:12;;;;;;;1.95;1.25;;;;;;;13.55;40.19;101814.38;5051231;28;20056;-70
2021/05/02 09:29:42;;;;;;;7.68;1.48;;;;;;;13.64;40.04;101808.22;5059098;28;20767;-71
2021/05/02 09:32:11;;;;;;;3.60;1.33;;;;;;;13.12;38.30;101805.09;5048643;28;20080;-70
2021/05/02 09:34:49;;;;;;;4.38;1.40;;;;;;;12.96;39.75;101806.47;5058643;28;20484;-70
2021/05/02 09:37:15;;;;;;;5.63;1.20;;;;;;;13.29;39.85;101816.69;5048483;28;20049;-71
2021/05/02 09:39:43;;;;;;;3.55;1.40;;;;;;;13.27;41.22;101816.88;5054982;28;20107;-70
2021/05/02 09:42:14;;;;;;;4.13;1.27;;;;;;;13.12;41.31;101820.88;5053173;28;20095;-70
2021/05/02 09:44:41;;;;;;;3.80;1.40;;;;;;;13.17;41.79;101819.50;5026902;28;20593;-70
2021/05/02 09:47:25;;;;;;;2.35;1.38;;;;;;;13.38;39.09;101819.34;5061187;28;20512;-70
2021/05/02 09:50:12;;;;;;;5.25;1.40;;;;;;;13.93;39.98;101818.69;5051181;28;20076;-70
2021/05/02 09:53:02;;;;;;;3.42;1.50;;;;;;;13.73;39.17;101811.81;5057589;28;20056;-70
2021/05/02 09:55:36;;;;;;;4.18;1.73;;;;;;;13.62;39.40;101805.75;5045921;28;20084;-70
2021/05/02 09:58:08;;;;;;;4.10;1.60;;;;;;;13.38;38.46;101818.53;5051000;28;20408;-70
2021/05/02 10:00:35;;;;;;;3.33;1.33;;;;;;;12.87;38.52;101823.06;5049797;28;20056;-70
2021/05/02 10:03:07;;;;;;;2.38;1.27;;;;;;;12.65;39.71;101830.25;5052685;28;20397;-70
2021/05/02 10:05:34;;;;;;;4.22;1.55;;;;;;;12.34;39.47;101820.75;5042180;28;20488;-71
2021/05/02 10:08:01;;;;;;;3.88;1.65;;;;;;;12.19;41.06;101820.25;5048942;28;20622;-71
2021/05/02 10:10:28;;;;;;;4.43;1.60;;;;;;;12.01;41.23;101843.72;5038095;28;20153;-70
2021/05/02 10:12:55;;;;;;;5.03;1.33;;;;;;;11.93;42.08;101836.47;5051678;28;20114;-71
2021/05/02 10:15:23;;;;;;;4.97;1.10;;;;;;;11.67;41.16;101851.81;5051436;28;20706;-70
2021/05/02 10:17:51;;;;;;;2.90;1.50;;;;;;;11.56;42.53;101836.91;5051240;28;20405;-70
2021/05/02 10:20:21;;;;;;;5.70;1.70;;;;;;;11.72;42.87;101841.75;5042866;28;20053;-70
2021/05/02 10:22:48;;;;;;;3.85;2.08;;;;;;;11.86;43.57;101845.84;5031202;28;20046;-70
2021/05/02 10:25:15;;;;;;;5.03;1.60;;;;;;;11.89;43.60;101842.97;5041068;28;20827;-69
2021/05/02 10:27:47;;;;;;;2.55;1.20;;;;;;;11.97;42.82;101852.84;5057787;28;20094;-70
2021/05/02 10:30:36;;;;;;;2.55;1.20;;;;;;;12.60;43.91;101845.63;5035082;28;20559;-69
2021/05/02 10:33:14;;;;;;;4.60;1.30;;;;;;;13.09;42.66;101837.78;5056880;28;20057;-70
2021/05/02 10:35:52;;;;;;;2.55;1.38;;;;;;;13.47;40.74;101833.50;5046067;28;20079;-70
2021/05/02 10:38:47;;;;;;;4.30;1.52;;;;;;;13.33;40.41;101831.28;5053826;28;20052;-70
2021/05/02 10:41:20;;;;;;;3.63;1.40;;;;;;;13.70;39.41;101835.81;5053017;28;20060;-71
2021/05/02 10:43:46;;;;;;;2.33;1.30;;;;;;;13.84;38.68;101824.84;5052719;28;20564;-70
2021/05/02 10:46:53;;;;;;;2.33;1.20;;;;;;;14.11;39.38;101834.59;5050572;28;20060;-70
2021/05/02 10:49:20;;;;;;;2.78;1.20;;;;;;;13.97;38.25;101829.78;5043340;28;20048;-70
2021/05/02 10:51:49;;;;;;;2.70;1.38;;;;;;;13.72;39.10;101823.31;5044641;28;20174;-70
2021/05/02 10:54:20;;;;;;;3.78;1.20;;;;;;;13.68;39.50;101838.63;5045944;28;20534;-70
2021/05/02 10:56:59;;;;;;;1.33;1.08;;;;;;;14.30;39.87;101835.50;5060245;28;20060;-69
2021/05/02 11:00:04;;;;;;;1.52;1.00;;;;;;;14.16;37.00;101832.34;5033189;28;20163;-70
2021/05/02 11:02:39;;;;;;;3.10;1.40;;;;;;;14.11;37.21;101833.75;5043603;28;20079;-69
2021/05/02 11:05:08;;;;;;;5.22;1.50;;;;;;;14.15;36.71;101835.97;5026265;28;20056;-71
2021/05/02 11:07:37;;;;;;;7.50;2.03;;;;;;;14.49;37.03;101835.41;5047383;28;20068;-69
2021/05/02 11:10:05;;;;;;;3.72;1.40;;;;;;;14.37;36.37;101829.50;5049194;28;20136;-70
2021/05/02 11:12:32;;;;;;;2.90;1.40;;;;;;;14.09;34.40;101835.72;5047999;28;20631;-69
2021/05/02 11:14:59;;;;;;;1.60;1.17;;;;;;;13.84;35.69;101833.56;5057611;28;20052;-70
2021/05/02 11:17:27;;;;;;;5.07;1.75;;;;;;;13.68;36.38;101838.63;5045763;28;20786;-70
2021/05/02 11:19:54;;;;;;;3.28;1.70;;;;;;;13.65;36.92;101838.91;5054304;28;20056;-71
2021/05/02 11:22:21;;;;;;;2.75;1.60;;;;;;;13.52;37.42;101841.81;5042725;28;20045;-70
2021/05/02 11:24:51;;;;;;;3.33;1.42;;;;;;;13.40;36.72;101849.03;5038901;28;20463;-70
2021/05/02 11:27:43;;;;;;;4.13;1.40;;;;;;;13.18;37.46;101838.75;5051556;28;20076;-70
2021/05/02 11:30:15;;;;;;;5.13;1.50;;;;;;;12.82;38.32;101843.72;5054975;28;20056;-71
2021/05/02 11:32:43;;;;;;;4.95;2.00;;;;;;;12.77;39.74;101848.56;5043020;28;20144;-71